Time,TemperatureF,DewpointF,PressureIn,WindDirection,WindDirectionDegrees,WindSpeedMPH,WindSpeedGustMPH,Humidity,HourlyPrecipIn,Conditions,Clouds,dailyrainin,SolarRadiationWatts/m^2,SoftwareType,DateUTC
2013-04-29 00:01:00,50.0,33.0,-100.00,West,273,14.0,19.0,51,0.00,,,0.00,0.000000,,2013-04-29 07:01:00,
2013-04-29 00:11:00,50.0,33.0,-100.00,West,273,14.0,19.0,51,0.00,,,0.00,0.000000,,2013-04-29 07:11:00,
2013-04-29 00:21:00,50.0,33.0,-100.00,West,273,14.0,19.0,51,0.00,,,0.00,0.000000,,2013-04-29 07:21:00,
2013-04-29 00:52:00,48.0,34.0,-100.00,West,263,11.0,19.0,58,0.00,,,0.00,0.000000,,2013-04-29 07:52:00,
2013-04-29 01:02:00,48.0,34.0,-100.00,West,263,11.0,19.0,58,0.00,,,0.00,0.000000,,2013-04-29 08:02:00,
2013-04-29 01:11:00,48.0,34.0,-100.00,West,263,11.0,19.0,58,0.00,,,0.00,0.000000,,2013-04-29 08:11:00,
2013-04-29 01:21:00,48.0,34.0,-100.00,West,263,11.0,19.0,58,0.00,,,0.00,0.000000,,2013-04-29 08:21:00,
2013-04-29 01:52:00,48.0,35.0,-100.00,West,266,10.0,15.0,60,0.00,,,0.00,0.000000,,2013-04-29 08:52:00,
2013-04-29 02:01:00,48.0,35.0,-100.00,West,266,10.0,15.0,60,0.00,,,0.00,0.000000,,2013-04-29 09:01:00,
2013-04-29 02:11:00,48.0,35.0,-100.00,West,266,10.0,15.0,60,0.00,,,0.00,0.000000,,2013-04-29 09:11:00,
2013-04-29 02:21:00,48.0,35.0,-100.00,West,266,10.0,15.0,60,0.00,,,0.00,0.000000,,2013-04-29 09:21:00,
2013-04-29 02:53:00,48.0,35.0,-100.00,West,273,12.0,16.0,61,0.00,,,-99.99,0.000000,,2013-04-29 09:53:00,
2013-04-29 03:02:00,48.0,35.0,-100.00,West,273,12.0,16.0,61,0.00,,,-99.99,0.000000,,2013-04-29 10:02:00,
2013-04-29 03:12:00,48.0,35.0,-100.00,West,273,12.0,16.0,61,0.00,,,-99.99,0.000000,,2013-04-29 10:12:00,
2013-04-29 03:22:00,48.0,35.0,-100.00,West,273,12.0,16.0,61,0.00,,,-99.99,0.000000,,2013-04-29 10:22:00,
2013-04-29 03:52:00,45.0,35.0,-100.00,NW,307,7.0,13.0,69,0.00,,,0.00,0.000000,,2013-04-29 10:52:00,
2013-04-29 04:02:00,45.0,35.0,-100.00,NW,307,7.0,13.0,69,0.00,,,0.00,0.000000,,2013-04-29 11:02:00,
2013-04-29 04:12:00,45.0,35.0,-100.00,NW,307,7.0,13.0,69,0.00,,,0.00,0.000000,,2013-04-29 11:12:00,
2013-04-29 04:21:00,45.0,35.0,-100.00,NW,307,7.0,13.0,69,0.00,,,0.00,0.000000,,2013-04-29 11:21:00,
2013-04-29 04:52:00,44.0,35.0,-100.00,WNW,295,4.0,7.0,70,0.00,,,0.00,0.000000,,2013-04-29 11:52:00,
2013-04-29 05:01:00,44.0,35.0,-100.00,WNW,295,4.0,7.0,70,0.00,,,0.00,0.000000,,2013-04-29 12:01:00,
2013-04-29 05:12:00,44.0,35.0,-100.00,WNW,295,4.0,7.0,70,0.00,,,0.00,0.000000,,2013-04-29 12:12:00,
2013-04-29 05:21:00,44.0,35.0,-100.00,WNW,295,4.0,7.0,70,0.00,,,0.00,0.000000,,2013-04-29 12:21:00,
2013-04-29 05:52:00,47.0,35.0,-100.00,WSW,248,7.0,9.0,63,0.00,,,0.00,0.000000,,2013-04-29 12:52:00,
2013-04-29 06:01:00,47.0,35.0,-100.00,WSW,248,7.0,9.0,63,0.00,,,0.00,0.000000,,2013-04-29 13:01:00,
2013-04-29 06:11:00,47.0,35.0,-100.00,WSW,248,7.0,9.0,63,0.00,,,0.00,0.000000,,2013-04-29 13:11:00,
2013-04-29 06:21:00,47.0,35.0,-100.00,WSW,248,7.0,9.0,63,0.00,,,0.00,0.000000,,2013-04-29 13:21:00,
2013-04-29 06:52:00,49.0,36.0,-100.00,WNW,283,6.0,22.0,61,0.00,,,0.00,25.000000,,2013-04-29 13:52:00,
2013-04-29 07:01:00,49.0,36.0,-100.00,WNW,283,6.0,22.0,61,0.00,,,0.00,25.000000,,2013-04-29 14:01:00,
2013-04-29 07:11:00,49.0,36.0,-100.00,WNW,283,6.0,22.0,61,0.00,,,0.00,25.000000,,2013-04-29 14:11:00,
2013-04-29 07:21:00,49.0,36.0,-100.00,WNW,283,6.0,22.0,61,0.00,,,0.00,25.000000,,2013-04-29 14:21:00,
2013-04-29 07:52:00,49.0,29.0,-100.00,WNW,284,18.0,28.0,45,0.00,,,0.00,84.000000,,2013-04-29 14:52:00,
2013-04-29 08:01:00,49.0,29.0,-100.00,WNW,284,18.0,28.0,45,0.00,,,0.00,84.000000,,2013-04-29 15:01:00,
2013-04-29 08:12:00,49.0,29.0,-100.00,WNW,284,18.0,28.0,45,0.00,,,0.00,84.000000,,2013-04-29 15:12:00,
2013-04-29 08:21:00,49.0,29.0,-100.00,WNW,284,18.0,28.0,45,0.00,,,0.00,84.000000,,2013-04-29 15:21:00,
2013-04-29 08:53:00,51.0,24.0,-100.00,WNW,284,20.0,33.0,35,0.00,,,0.00,182.000000,,2013-04-29 15:53:00,
2013-04-29 09:02:00,51.0,24.0,-100.00,WNW,284,20.0,33.0,35,0.00,,,0.00,182.000000,,2013-04-29 16:02:00,
2013-04-29 09:52:00,50.0,25.0,-100.00,WNW,287,22.0,34.0,38,0.00,,,0.00,260.000000,,2013-04-29 16:52:00,
2013-04-29 10:02:00,50.0,25.0,-100.00,WNW,287,22.0,34.0,38,0.00,,,0.00,260.000000,,2013-04-29 17:02:00,
2013-04-29 10:12:00,50.0,25.0,-100.00,WNW,287,22.0,34.0,38,0.00,,,0.00,260.000000,,2013-04-29 17:12:00,
2013-04-29 10:22:00,50.0,25.0,-100.00,WNW,287,22.0,34.0,38,0.00,,,0.00,260.000000,,2013-04-29 17:22:00,
2013-04-29 10:52:00,54.0,26.0,-100.00,WNW,282,21.0,29.0,34,0.00,,,0.00,519.000000,,2013-04-29 17:52:00,
2013-04-29 11:01:00,54.0,26.0,-100.00,WNW,282,21.0,29.0,34,0.00,,,0.00,519.000000,,2013-04-29 18:01:00,
2013-04-29 11:13:00,54.0,26.0,-100.00,WNW,282,21.0,29.0,34,0.00,,,0.00,519.000000,,2013-04-29 18:13:00,
2013-04-29 11:22:00,54.0,26.0,-100.00,WNW,282,21.0,29.0,34,0.00,,,0.00,519.000000,,2013-04-29 18:22:00,
2013-04-29 11:52:00,56.0,25.0,-100.00,WNW,283,25.0,37.0,30,0.00,,,0.00,838.000000,,2013-04-29 18:52:00,
2013-04-29 12:01:00,56.0,25.0,-100.00,WNW,283,25.0,37.0,30,0.00,,,0.00,838.000000,,2013-04-29 19:01:00,
2013-04-29 12:11:00,56.0,25.0,-100.00,WNW,283,25.0,37.0,30,0.00,,,0.00,838.000000,,2013-04-29 19:11:00,
2013-04-29 12:21:00,56.0,25.0,-100.00,WNW,283,25.0,37.0,30,0.00,,,0.00,838.000000,,2013-04-29 19:21:00,
2013-04-29 12:52:00,57.0,25.0,-100.00,West,267,25.0,40.0,29,0.00,,,0.00,1019.000000,,2013-04-29 19:52:00,
2013-04-29 13:02:00,57.0,25.0,-100.00,West,267,25.0,40.0,29,0.00,,,0.00,1019.000000,,2013-04-29 20:02:00,
2013-04-29 13:11:00,57.0,25.0,-100.00,West,267,25.0,40.0,29,0.00,,,0.00,1019.000000,,2013-04-29 20:11:00,
2013-04-29 13:21:00,57.0,25.0,-100.00,West,267,25.0,40.0,29,0.00,,,0.00,1019.000000,,2013-04-29 20:21:00,
2013-04-29 13:52:00,58.0,23.0,-100.00,West,280,23.0,37.0,26,0.00,,,0.00,1030.000000,,2013-04-29 20:52:00,
2013-04-29 14:01:00,58.0,23.0,-100.00,West,280,23.0,37.0,26,0.00,,,0.00,1030.000000,,2013-04-29 21:01:00,
2013-04-29 14:11:00,58.0,23.0,-100.00,West,280,23.0,37.0,26,0.00,,,0.00,1030.000000,,2013-04-29 21:11:00,
2013-04-29 14:21:00,58.0,23.0,-100.00,West,280,23.0,37.0,26,0.00,,,0.00,1030.000000,,2013-04-29 21:21:00,
2013-04-29 14:53:00,58.0,23.0,-100.00,West,268,25.0,36.0,26,0.00,,,0.00,981.000000,,2013-04-29 21:53:00,
2013-04-29 15:02:00,58.0,23.0,-100.00,West,268,25.0,36.0,26,0.00,,,0.00,981.000000,,2013-04-29 22:02:00,
2013-04-29 15:13:00,58.0,23.0,-100.00,West,268,25.0,36.0,26,0.00,,,0.00,981.000000,,2013-04-29 22:13:00,
2013-04-29 15:23:00,58.0,23.0,-100.00,West,268,25.0,36.0,26,0.00,,,0.00,981.000000,,2013-04-29 22:23:00,
2013-04-29 15:52:00,57.0,24.0,-100.00,West,270,27.0,41.0,28,0.00,,,0.00,873.000000,,2013-04-29 22:52:00,
2013-04-29 16:02:00,57.0,24.0,-100.00,West,270,27.0,41.0,28,0.00,,,0.00,873.000000,,2013-04-29 23:02:00,
2013-04-29 16:11:00,57.0,24.0,-100.00,West,270,27.0,41.0,28,0.00,,,0.00,873.000000,,2013-04-29 23:11:00,
2013-04-29 16:22:00,57.0,24.0,-100.00,West,270,27.0,41.0,28,0.00,,,0.00,873.000000,,2013-04-29 23:22:00,
2013-04-29 16:52:00,58.0,17.0,-100.00,WNW,297,17.0,33.0,20,0.00,,,0.00,741.000000,,2013-04-29 23:52:00,
2013-04-29 17:01:00,58.0,17.0,-100.00,WNW,297,17.0,33.0,20,0.00,,,0.00,741.000000,,2013-04-30 00:01:00,
2013-04-29 17:11:00,58.0,17.0,-100.00,WNW,297,17.0,33.0,20,0.00,,,0.00,741.000000,,2013-04-30 00:11:00,
2013-04-29 17:21:00,58.0,17.0,-100.00,WNW,297,17.0,33.0,20,0.00,,,0.00,741.000000,,2013-04-30 00:21:00,
2013-04-29 18:01:00,56.0,23.0,-100.00,West,271,23.0,34.0,28,0.00,,,0.00,510.000000,,2013-04-30 01:01:00,
2013-04-29 18:11:00,56.0,23.0,-100.00,West,271,23.0,34.0,28,0.00,,,0.00,510.000000,,2013-04-30 01:11:00,
2013-04-29 18:21:00,56.0,23.0,-100.00,West,271,23.0,34.0,28,0.00,,,0.00,510.000000,,2013-04-30 01:21:00,
2013-04-29 20:01:00,50.0,26.0,-100.00,West,274,15.0,24.0,39,-99.99,,,0.00,98.000000,,2013-04-30 03:01:00,
2013-04-29 20:11:00,50.0,26.0,-100.00,West,274,15.0,24.0,39,-99.99,,,0.00,98.000000,,2013-04-30 03:11:00,
2013-04-29 20:21:00,50.0,26.0,-100.00,West,274,15.0,24.0,39,-99.99,,,0.00,98.000000,,2013-04-30 03:21:00,
2013-04-29 23:01:00,40.0,29.0,-100.00,WNW,282,12.0,15.0,64,-99.99,,,0.00,0.000000,,2013-04-30 06:01:00,
2013-04-29 23:11:00,40.0,29.0,-100.00,WNW,282,12.0,15.0,64,-99.99,,,0.00,0.000000,,2013-04-30 06:11:00,
2013-04-29 23:21:00,40.0,29.0,-100.00,WNW,282,12.0,15.0,64,-99.99,,,0.00,0.000000,,2013-04-30 06:21:00,
2013-04-29 23:52:00,39.0,29.0,-100.00,WNW,297,10.0,17.0,67,0.00,,,0.00,0.000000,,2013-04-30 06:52:00,